Weather History for Clarksville, TX

Change the Weather History Date:

Saturday, March 16, 2013

  Actual Average (KPRX) Record (KPRX)
Temperature  
Mean Temperature 68 °F -  
Max Temperature 80 °F 62 °F 80 °F (2012)
Min Temperature 55 °F 43 °F 37 °F (1999)
Cooling Degree Days 2    
Growing Degree Days 18 (Base 50)    
Moisture  
Dew Point 49 °F    
Average Humidity 50    
Maximum Humidity 77    
Minimum Humidity 30    
Precipitation  
Precipitation 0.00 in - - ()
Sea Level Pressure  
Sea Level Pressure 29.84 in    
Wind  
Wind Speed 9 mph (South)    
Max Wind Speed 17 mph    
Max Gust Speed 24 mph    
Visibility 10 miles    
Events      
Averages and records for this station are not official NWS values.
T = Trace of Precipitation, MM = Missing Value Source: NWS Daily Summary

Daily Weather History Graph

Daily Weather History Graph

Search for Another Location

Airport:

Trip Planner

Search our weather history database for the weather conditions in past years. The results will help you decide how hot, cold, wet, or windy it might be!

Date:

Astronomy

Mar. 16, 2013 Rise Set
Actual Time 7:28 AM CDT 7:29 PM CDT
Civil Twilight 7:04 AM CDT 7:53 PM CDT
Nautical Twilight 6:35 AM CDT 8:22 PM CDT
Astronomical Twilight 6:06 AM CDT 8:51 PM CDT
Moon 10:13 AM CDT (3/16) No Moon Set
Length of Visible Light 12h 49m
Length of Day
12h 00m
Waxing Crescent, 23% of the Moon is Illuminated
Mar 16
Waxing Crescent
Mar 19
First Quarter
Mar 27
Full
Apr 2
Last Quarter
Apr 10
New

Hourly Weather History & Observations

Time (CDT) Temp. Dew Point Humidity Pressure Visibility Wind Dir Wind Speed Gust Speed Precip Events Conditions
12:15 AM 66.2 °F 44.6 °F 46% 29.89 in 10.0 mi South 10.4 mph - N/A   Clear
12:35 AM 68.0 °F 44.6 °F 43% 29.89 in 10.0 mi South 9.2 mph - N/A   Clear
12:55 AM 68.0 °F 44.6 °F 43% 29.89 in 10.0 mi South 11.5 mph - N/A   Clear
1:15 AM 68.0 °F 46.4 °F 46% 29.88 in 10.0 mi South 10.4 mph 17.3 mph N/A   Clear
1:35 AM 66.2 °F 46.4 °F 49% 29.88 in 10.0 mi South 9.2 mph - N/A   Clear
1:55 AM 66.2 °F 46.4 °F 49% 29.88 in 10.0 mi South 6.9 mph 16.1 mph N/A   Clear
2:15 AM 64.4 °F 46.4 °F 52% 29.88 in 10.0 mi South 8.1 mph 16.1 mph N/A   Clear
2:35 AM 64.4 °F 46.4 °F 52% 29.88 in 10.0 mi South 6.9 mph - N/A   Clear
2:55 AM 64.4 °F 46.4 °F 52% 29.88 in 10.0 mi South 8.1 mph - N/A   Clear
3:15 AM 62.6 °F 46.4 °F 55% 29.88 in 10.0 mi South 5.8 mph - N/A   Clear
3:35 AM 62.6 °F 46.4 °F 55% 29.88 in 10.0 mi South 6.9 mph - N/A   Clear
3:55 AM 62.6 °F 46.4 °F 55% 29.88 in 10.0 mi South 9.2 mph - N/A   Clear
4:15 AM 62.6 °F 44.6 °F 52% 29.88 in 10.0 mi South 5.8 mph - N/A   Clear
4:35 AM 60.8 °F 44.6 °F 55% 29.88 in 10.0 mi South 8.1 mph - N/A   Clear
4:55 AM 60.8 °F 44.6 °F 55% 29.88 in 10.0 mi South 5.8 mph - N/A   Clear
5:15 AM 60.8 °F 44.6 °F 55% 29.88 in 10.0 mi South 6.9 mph - N/A   Clear
5:35 AM 59.0 °F 44.6 °F 59% 29.88 in 10.0 mi South 4.6 mph - N/A   Clear
5:55 AM 59.0 °F 46.4 °F 63% 29.88 in 10.0 mi South 5.8 mph - N/A   Clear
6:15 AM 59.0 °F 46.4 °F 63% 29.88 in 10.0 mi South 5.8 mph - N/A   Clear
6:35 AM 59.0 °F 48.2 °F 67% 29.88 in 10.0 mi South 6.9 mph - N/A   Clear
6:55 AM 59.0 °F 48.2 °F 67% 29.88 in 10.0 mi South 5.8 mph - N/A   Clear
7:15 AM 57.2 °F 48.2 °F 72% 29.89 in 10.0 mi SSE 5.8 mph - N/A   Clear
7:35 AM 55.4 °F 48.2 °F 77% 29.89 in 10.0 mi SE 3.5 mph - N/A   Clear
7:55 AM 55.4 °F 48.2 °F 77% 29.90 in 10.0 mi SE 3.5 mph - N/A   Clear
8:15 AM 57.2 °F 50.0 °F 77% 29.90 in 10.0 mi SE 4.6 mph - N/A   Clear
8:35 AM 57.2 °F 50.0 °F 77% 29.90 in 10.0 mi SE 4.6 mph - N/A   Clear
8:55 AM 60.8 °F 51.8 °F 72% 29.90 in 10.0 mi SSE 6.9 mph - N/A   Clear
9:15 AM 62.6 °F 51.8 °F 68% 29.90 in 10.0 mi South 9.2 mph - N/A   Clear
9:35 AM 62.6 °F 51.8 °F 68% 29.90 in 7.0 mi South 12.7 mph 17.3 mph N/A   Clear
9:55 AM 64.4 °F 51.8 °F 64% 29.90 in 10.0 mi South 11.5 mph - N/A   Clear
10:15 AM 66.2 °F 50.0 °F 56% 29.90 in 10.0 mi South 11.5 mph 17.3 mph N/A   Clear
10:35 AM 68.0 °F 50.0 °F 52% 29.89 in 10.0 mi SSW 9.2 mph 17.3 mph N/A   Clear
10:55 AM 69.8 °F 50.0 °F 49% 29.89 in 7.0 mi South 11.5 mph 17.3 mph N/A   Clear
11:15 AM 69.8 °F 50.0 °F 49% 29.90 in 10.0 mi South 10.4 mph 17.3 mph N/A   Clear
11:35 AM 71.6 °F 51.8 °F 50% 29.90 in 10.0 mi South 11.5 mph - N/A   Clear
11:55 AM 71.6 °F 50.0 °F 46% 29.88 in 10.0 mi South 13.8 mph 17.3 mph N/A   Clear
12:15 PM 73.4 °F 51.8 °F 47% 29.88 in 10.0 mi South 10.4 mph 16.1 mph N/A   Clear
12:35 PM 73.4 °F 51.8 °F 47% 29.88 in 10.0 mi South 10.4 mph 16.1 mph N/A   Clear
12:55 PM 75.2 °F 51.8 °F 44% 29.87 in 10.0 mi South 11.5 mph 16.1 mph N/A   Clear
1:15 PM 77.0 °F 51.8 °F 41% 29.86 in 10.0 mi South 9.2 mph 19.6 mph N/A   Clear
1:55 PM 77.0 °F 51.8 °F 41% 29.83 in 10.0 mi SSW 9.2 mph - N/A   Clear
2:15 PM 78.8 °F 50.0 °F 36% 29.83 in 7.0 mi SSE 13.8 mph 19.6 mph N/A   Clear
2:35 PM 78.8 °F 50.0 °F 36% 29.81 in 7.0 mi South 13.8 mph 20.7 mph N/A   Clear
2:55 PM 78.8 °F 50.0 °F 36% 29.80 in 10.0 mi SSE 13.8 mph 18.4 mph N/A   Clear
3:15 PM 78.8 °F 50.0 °F 36% 29.79 in 7.0 mi SSE 13.8 mph 20.7 mph N/A   Clear
3:35 PM 78.8 °F 48.2 °F 34% 29.78 in 10.0 mi South 12.7 mph 24.2 mph N/A   Clear
3:55 PM 80.6 °F 50.0 °F 34% 29.77 in 10.0 mi South 12.7 mph 17.3 mph N/A   Clear
4:15 PM 80.6 °F 50.0 °F 34% 29.77 in 10.0 mi South 10.4 mph 17.3 mph N/A   Clear
4:35 PM 80.6 °F 50.0 °F 34% 29.76 in 10.0 mi South 12.7 mph 18.4 mph N/A   Clear
4:55 PM 80.6 °F 48.2 °F 32% 29.75 in 10.0 mi South 16.1 mph 20.7 mph N/A   Clear
5:15 PM 78.8 °F 50.0 °F 36% 29.74 in 10.0 mi SSE 17.3 mph 24.2 mph N/A   Clear
5:35 PM 80.6 °F 46.4 °F 30% 29.74 in 10.0 mi South 12.7 mph 20.7 mph N/A   Clear
5:55 PM 80.6 °F 48.2 °F 32% 29.73 in 7.0 mi SSE 15.0 mph 19.6 mph N/A   Clear
6:15 PM 78.8 °F 46.4 °F 32% 29.74 in 10.0 mi South 13.8 mph 18.4 mph N/A   Clear
6:35 PM 78.8 °F 46.4 °F 32% 29.74 in 10.0 mi South 9.2 mph 18.4 mph N/A   Clear
6:55 PM 77.0 °F 50.0 °F 39% 29.74 in 10.0 mi SSE 11.5 mph 17.3 mph N/A   Clear
7:15 PM 77.0 °F 50.0 °F 39% 29.74 in 10.0 mi SSE 10.4 mph 16.1 mph N/A   Clear
7:35 PM 75.2 °F 50.0 °F 41% 29.75 in 10.0 mi SSE 9.2 mph - N/A   Clear
7:55 PM 73.4 °F 50.0 °F 44% 29.75 in 10.0 mi SSE 5.8 mph - N/A   Clear
8:15 PM 73.4 °F 50.0 °F 44% 29.75 in 10.0 mi SSE 5.8 mph - N/A   Clear
8:35 PM 71.6 °F 50.0 °F 46% 29.76 in 10.0 mi SSE 4.6 mph - N/A   Clear
8:55 PM 71.6 °F 50.0 °F 46% 29.77 in 10.0 mi SSE 3.5 mph - N/A   Scattered Clouds
9:15 PM 69.8 °F 50.0 °F 49% 29.77 in 10.0 mi Calm Calm - N/A   Clear
9:35 PM 68.0 °F 50.0 °F 52% 29.78 in 10.0 mi ESE 3.5 mph - N/A   Scattered Clouds
9:55 PM 68.0 °F 50.0 °F 52% 29.78 in 10.0 mi ESE 4.6 mph - N/A   Scattered Clouds
10:15 PM 68.0 °F 50.0 °F 52% 29.78 in 10.0 mi ESE 4.6 mph - N/A   Clear
10:35 PM 66.2 °F 50.0 °F 56% 29.78 in 10.0 mi SE 4.6 mph - N/A   Clear
10:55 PM 66.2 °F 50.0 °F 56% 29.78 in 10.0 mi SE 5.8 mph - N/A   Clear
11:15 PM 66.2 °F 50.0 °F 56% 29.78 in 10.0 mi SE 8.1 mph - N/A   Clear
11:35 PM 66.2 °F 50.0 °F 56% 29.78 in 10.0 mi SSE 8.1 mph - N/A   Clear
11:55 PM 68.0 °F 50.0 °F 52% 29.78 in 10.0 mi SSE 9.2 mph - N/A   Scattered Clouds